sensor_id;sensor_type;location;lat;lon;timestamp;P1;durP1;ratioP1;P2;durP2;ratioP2
37895;SDS011;23733;53.254;10.430;2023-05-20T00:01:45;2.20;;;1.20;;
37895;SDS011;23733;53.254;10.430;2023-05-20T00:04:14;3.43;;;1.23;;
37895;SDS011;23733;53.254;10.430;2023-05-20T00:06:40;1.77;;;1.23;;
37895;SDS011;23733;53.254;10.430;2023-05-20T00:09:06;4.50;;;1.17;;
37895;SDS011;23733;53.254;10.430;2023-05-20T00:11:38;1.23;;;1.00;;
37895;SDS011;23733;53.254;10.430;2023-05-20T00:14:22;4.80;;;1.13;;
37895;SDS011;23733;53.254;10.430;2023-05-20T00:16:57;1.77;;;1.27;;
37895;SDS011;23733;53.254;10.430;2023-05-20T00:19:23;1.33;;;0.90;;
37895;SDS011;23733;53.254;10.430;2023-05-20T00:21:51;3.37;;;1.10;;
37895;SDS011;23733;53.254;10.430;2023-05-20T00:24:17;1.50;;;1.20;;
37895;SDS011;23733;53.254;10.430;2023-05-20T00:26:43;3.70;;;1.10;;
37895;SDS011;23733;53.254;10.430;2023-05-20T00:29:09;2.10;;;1.20;;
37895;SDS011;23733;53.254;10.430;2023-05-20T00:31:35;2.23;;;1.10;;
37895;SDS011;23733;53.254;10.430;2023-05-20T00:34:01;3.13;;;1.20;;
37895;SDS011;23733;53.254;10.430;2023-05-20T00:36:34;4.30;;;1.10;;
37895;SDS011;23733;53.254;10.430;2023-05-20T00:39:00;1.73;;;1.10;;
37895;SDS011;23733;53.254;10.430;2023-05-20T00:41:26;2.10;;;1.07;;
37895;SDS011;23733;53.254;10.430;2023-05-20T00:43:53;2.33;;;1.30;;
37895;SDS011;23733;53.254;10.430;2023-05-20T00:46:25;3.73;;;1.40;;
37895;SDS011;23733;53.254;10.430;2023-05-20T00:48:52;1.80;;;1.27;;
37895;SDS011;23733;53.254;10.430;2023-05-20T00:51:18;2.70;;;1.10;;
37895;SDS011;23733;53.254;10.430;2023-05-20T00:53:47;3.63;;;1.00;;
37895;SDS011;23733;53.254;10.430;2023-05-20T00:56:14;2.57;;;1.23;;
37895;SDS011;23733;53.254;10.430;2023-05-20T00:58:40;2.00;;;1.07;;
37895;SDS011;23733;53.254;10.430;2023-05-20T01:01:08;6.57;;;1.20;;
37895;SDS011;23733;53.254;10.430;2023-05-20T01:03:38;2.37;;;1.10;;
37895;SDS011;23733;53.254;10.430;2023-05-20T01:06:07;2.53;;;1.10;;
37895;SDS011;23733;53.254;10.430;2023-05-20T01:08:33;1.27;;;1.00;;
37895;SDS011;23733;53.254;10.430;2023-05-20T01:11:02;2.87;;;1.30;;
37895;SDS011;23733;53.254;10.430;2023-05-20T01:13:53;1.63;;;1.10;;
37895;SDS011;23733;53.254;10.430;2023-05-20T01:16:25;3.27;;;1.00;;
37895;SDS011;23733;53.254;10.430;2023-05-20T01:18:56;2.60;;;1.10;;
37895;SDS011;23733;53.254;10.430;2023-05-20T01:21:26;3.60;;;1.07;;
37895;SDS011;23733;53.254;10.430;2023-05-20T01:23:55;1.97;;;1.10;;
37895;SDS011;23733;53.254;10.430;2023-05-20T01:26:24;1.37;;;0.90;;
37895;SDS011;23733;53.254;10.430;2023-05-20T01:28:51;2.37;;;1.07;;
37895;SDS011;23733;53.254;10.430;2023-05-20T01:31:30;4.60;;;1.20;;
37895;SDS011;23733;53.254;10.430;2023-05-20T01:34:04;2.33;;;1.30;;
37895;SDS011;23733;53.254;10.430;2023-05-20T01:36:30;3.33;;;1.10;;
37895;SDS011;23733;53.254;10.430;2023-05-20T01:38:57;2.47;;;1.00;;
37895;SDS011;23733;53.254;10.430;2023-05-20T01:41:25;2.43;;;1.37;;
37895;SDS011;23733;53.254;10.430;2023-05-20T01:43:52;2.67;;;1.10;;
37895;SDS011;23733;53.254;10.430;2023-05-20T01:46:20;2.20;;;1.00;;
37895;SDS011;23733;53.254;10.430;2023-05-20T01:48:46;2.40;;;1.20;;
37895;SDS011;23733;53.254;10.430;2023-05-20T01:51:12;3.80;;;1.13;;
37895;SDS011;23733;53.254;10.430;2023-05-20T01:53:44;3.27;;;1.10;;
37895;SDS011;23733;53.254;10.430;2023-05-20T01:56:12;2.80;;;1.27;;
37895;SDS011;23733;53.254;10.430;2023-05-20T01:58:41;5.10;;;1.57;;
37895;SDS011;23733;53.254;10.430;2023-05-20T02:01:13;6.47;;;1.30;;
37895;SDS011;23733;53.254;10.430;2023-05-20T02:03:44;1.93;;;1.10;;
37895;SDS011;23733;53.254;10.430;2023-05-20T02:06:10;2.53;;;1.17;;
37895;SDS011;23733;53.254;10.430;2023-05-20T02:08:39;2.43;;;1.03;;
37895;SDS011;23733;53.254;10.430;2023-05-20T02:11:05;4.50;;;1.20;;
37895;SDS011;23733;53.254;10.430;2023-05-20T02:13:31;1.33;;;1.00;;
37895;SDS011;23733;53.254;10.430;2023-05-20T02:15:57;1.80;;;1.20;;
37895;SDS011;23733;53.254;10.430;2023-05-20T02:18:26;2.53;;;1.10;;
37895;SDS011;23733;53.254;10.430;2023-05-20T02:20:55;5.53;;;1.30;;
37895;SDS011;23733;53.254;10.430;2023-05-20T02:23:21;1.63;;;1.10;;
37895;SDS011;23733;53.254;10.430;2023-05-20T02:25:47;3.03;;;1.00;;
37895;SDS011;23733;53.254;10.430;2023-05-20T02:28:13;1.83;;;1.10;;
37895;SDS011;23733;53.254;10.430;2023-05-20T02:30:43;2.37;;;1.10;;
37895;SDS011;23733;53.254;10.430;2023-05-20T02:33:09;1.57;;;1.03;;
37895;SDS011;23733;53.254;10.430;2023-05-20T02:35:38;1.47;;;1.20;;
37895;SDS011;23733;53.254;10.430;2023-05-20T02:38:04;4.90;;;1.20;;
37895;SDS011;23733;53.254;10.430;2023-05-20T02:40:30;2.83;;;1.00;;
37895;SDS011;23733;53.254;10.430;2023-05-20T02:42:56;5.33;;;1.20;;
37895;SDS011;23733;53.254;10.430;2023-05-20T02:45:24;2.37;;;1.40;;
37895;SDS011;23733;53.254;10.430;2023-05-20T02:47:56;2.80;;;1.30;;
37895;SDS011;23733;53.254;10.430;2023-05-20T02:50:22;2.10;;;1.13;;
37895;SDS011;23733;53.254;10.430;2023-05-20T02:52:51;1.33;;;1.00;;
37895;SDS011;23733;53.254;10.430;2023-05-20T02:55:17;1.77;;;1.10;;
37895;SDS011;23733;53.254;10.430;2023-05-20T02:57:43;3.27;;;1.30;;
37895;SDS011;23733;53.254;10.430;2023-05-20T03:00:09;2.40;;;1.10;;
37895;SDS011;23733;53.254;10.430;2023-05-20T03:02:39;3.50;;;1.03;;
37895;SDS011;23733;53.254;10.430;2023-05-20T03:05:05;1.90;;;0.90;;
37895;SDS011;23733;53.254;10.430;2023-05-20T03:07:32;1.53;;;1.00;;
37895;SDS011;23733;53.254;10.430;2023-05-20T03:10:00;2.30;;;1.17;;
37895;SDS011;23733;53.254;10.430;2023-05-20T03:12:30;2.50;;;1.37;;
37895;SDS011;23733;53.254;10.430;2023-05-20T03:14:56;2.30;;;1.30;;
37895;SDS011;23733;53.254;10.430;2023-05-20T03:17:23;3.27;;;1.20;;
37895;SDS011;23733;53.254;10.430;2023-05-20T03:19:49;7.40;;;1.43;;
37895;SDS011;23733;53.254;10.430;2023-05-20T03:22:15;3.47;;;1.33;;
37895;SDS011;23733;53.254;10.430;2023-05-20T03:24:41;5.47;;;1.30;;
37895;SDS011;23733;53.254;10.430;2023-05-20T03:27:08;2.20;;;1.10;;
37895;SDS011;23733;53.254;10.430;2023-05-20T03:29:34;2.73;;;1.30;;
37895;SDS011;23733;53.254;10.430;2023-05-20T03:32:00;2.87;;;1.20;;
37895;SDS011;23733;53.254;10.430;2023-05-20T03:34:26;2.13;;;1.00;;
37895;SDS011;23733;53.254;10.430;2023-05-20T03:36:55;3.20;;;1.30;;
37895;SDS011;23733;53.254;10.430;2023-05-20T03:39:21;2.50;;;1.17;;
37895;SDS011;23733;53.254;10.430;2023-05-20T03:41:47;2.93;;;1.30;;
37895;SDS011;23733;53.254;10.430;2023-05-20T03:44:14;1.27;;;1.10;;
37895;SDS011;23733;53.254;10.430;2023-05-20T03:46:40;2.77;;;1.20;;
37895;SDS011;23733;53.254;10.430;2023-05-20T03:49:06;3.00;;;1.30;;
37895;SDS011;23733;53.254;10.430;2023-05-20T03:51:32;2.77;;;1.20;;
37895;SDS011;23733;53.254;10.430;2023-05-20T03:53:58;1.80;;;1.30;;
37895;SDS011;23733;53.254;10.430;2023-05-20T03:56:24;2.47;;;1.20;;
37895;SDS011;23733;53.254;10.430;2023-05-20T03:58:50;2.47;;;1.10;;
37895;SDS011;23733;53.254;10.430;2023-05-20T04:01:19;1.70;;;1.20;;
37895;SDS011;23733;53.254;10.430;2023-05-20T04:03:48;5.00;;;1.40;;
37895;SDS011;23733;53.254;10.430;2023-05-20T04:06:14;2.93;;;1.10;;
37895;SDS011;23733;53.254;10.430;2023-05-20T04:08:40;2.47;;;1.30;;
37895;SDS011;23733;53.254;10.430;2023-05-20T04:11:10;4.47;;;1.53;;
37895;SDS011;23733;53.254;10.430;2023-05-20T04:13:36;5.37;;;1.23;;
37895;SDS011;23733;53.254;10.430;2023-05-20T04:16:02;3.00;;;1.10;;
37895;SDS011;23733;53.254;10.430;2023-05-20T04:18:29;1.93;;;1.13;;
37895;SDS011;23733;53.254;10.430;2023-05-20T04:20:59;2.93;;;1.20;;
37895;SDS011;23733;53.254;10.430;2023-05-20T04:23:29;6.03;;;1.30;;
37895;SDS011;23733;53.254;10.430;2023-05-20T04:25:55;2.67;;;1.17;;
37895;SDS011;23733;53.254;10.430;2023-05-20T04:28:26;1.63;;;1.13;;
37895;SDS011;23733;53.254;10.430;2023-05-20T04:31:02;1.87;;;1.10;;
37895;SDS011;23733;53.254;10.430;2023-05-20T04:33:29;4.07;;;1.20;;
37895;SDS011;23733;53.254;10.430;2023-05-20T04:36:00;1.73;;;1.27;;
37895;SDS011;23733;53.254;10.430;2023-05-20T04:38:27;1.90;;;1.30;;
37895;SDS011;23733;53.254;10.430;2023-05-20T04:40:59;3.73;;;1.20;;
37895;SDS011;23733;53.254;10.430;2023-05-20T04:43:26;3.30;;;1.30;;
37895;SDS011;23733;53.254;10.430;2023-05-20T04:45:54;1.87;;;1.20;;
37895;SDS011;23733;53.254;10.430;2023-05-20T04:48:21;2.50;;;1.07;;
37895;SDS011;23733;53.254;10.430;2023-05-20T04:50:50;4.57;;;1.43;;
37895;SDS011;23733;53.254;10.430;2023-05-20T04:53:19;3.83;;;1.60;;
37895;SDS011;23733;53.254;10.430;2023-05-20T04:55:48;4.53;;;1.10;;
37895;SDS011;23733;53.254;10.430;2023-05-20T04:58:18;2.07;;;1.20;;
37895;SDS011;23733;53.254;10.430;2023-05-20T05:00:44;2.27;;;1.20;;
37895;SDS011;23733;53.254;10.430;2023-05-20T05:03:11;2.80;;;1.23;;
37895;SDS011;23733;53.254;10.430;2023-05-20T05:05:37;3.10;;;1.20;;
37895;SDS011;23733;53.254;10.430;2023-05-20T05:08:04;2.93;;;1.20;;
37895;SDS011;23733;53.254;10.430;2023-05-20T05:10:31;2.27;;;1.30;;
37895;SDS011;23733;53.254;10.430;2023-05-20T05:13:00;3.33;;;1.37;;
37895;SDS011;23733;53.254;10.430;2023-05-20T05:15:26;2.73;;;1.57;;
37895;SDS011;23733;53.254;10.430;2023-05-20T05:17:53;1.90;;;1.27;;
37895;SDS011;23733;53.254;10.430;2023-05-20T05:20:19;2.50;;;1.20;;
37895;SDS011;23733;53.254;10.430;2023-05-20T05:22:49;3.10;;;1.27;;
37895;SDS011;23733;53.254;10.430;2023-05-20T05:25:15;2.77;;;1.20;;
37895;SDS011;23733;53.254;10.430;2023-05-20T05:27:44;3.50;;;1.40;;
37895;SDS011;23733;53.254;10.430;2023-05-20T05:30:16;3.23;;;1.70;;
37895;SDS011;23733;53.254;10.430;2023-05-20T05:32:42;4.37;;;1.70;;
37895;SDS011;23733;53.254;10.430;2023-05-20T05:35:11;3.73;;;1.70;;
37895;SDS011;23733;53.254;10.430;2023-05-20T05:37:38;4.20;;;1.50;;
37895;SDS011;23733;53.254;10.430;2023-05-20T05:40:04;3.33;;;1.43;;
37895;SDS011;23733;53.254;10.430;2023-05-20T05:42:31;2.70;;;1.33;;
37895;SDS011;23733;53.254;10.430;2023-05-20T05:44:57;2.87;;;1.40;;
37895;SDS011;23733;53.254;10.430;2023-05-20T05:47:23;3.83;;;1.17;;
37895;SDS011;23733;53.254;10.430;2023-05-20T05:49:56;6.00;;;1.37;;
37895;SDS011;23733;53.254;10.430;2023-05-20T05:52:22;2.67;;;1.27;;
37895;SDS011;23733;53.254;10.430;2023-05-20T05:54:48;3.10;;;1.40;;
37895;SDS011;23733;53.254;10.430;2023-05-20T05:57:17;3.07;;;1.67;;
37895;SDS011;23733;53.254;10.430;2023-05-20T05:59:43;6.70;;;1.40;;
37895;SDS011;23733;53.254;10.430;2023-05-20T06:02:12;2.97;;;1.10;;
37895;SDS011;23733;53.254;10.430;2023-05-20T06:04:39;6.63;;;1.70;;
37895;SDS011;23733;53.254;10.430;2023-05-20T06:07:05;3.53;;;1.53;;
37895;SDS011;23733;53.254;10.430;2023-05-20T06:09:31;5.20;;;1.70;;
37895;SDS011;23733;53.254;10.430;2023-05-20T06:11:57;3.37;;;1.57;;
37895;SDS011;23733;53.254;10.430;2023-05-20T06:14:23;8.07;;;1.83;;
37895;SDS011;23733;53.254;10.430;2023-05-20T06:16:52;2.60;;;1.40;;
37895;SDS011;23733;53.254;10.430;2023-05-20T06:19:21;3.87;;;1.47;;
37895;SDS011;23733;53.254;10.430;2023-05-20T06:21:47;3.23;;;1.73;;
37895;SDS011;23733;53.254;10.430;2023-05-20T06:24:13;3.00;;;1.60;;
37895;SDS011;23733;53.254;10.430;2023-05-20T06:26:40;4.97;;;1.67;;
37895;SDS011;23733;53.254;10.430;2023-05-20T06:29:06;2.30;;;1.60;;
37895;SDS011;23733;53.254;10.430;2023-05-20T06:31:35;5.93;;;1.70;;
37895;SDS011;23733;53.254;10.430;2023-05-20T06:34:01;4.07;;;1.73;;
37895;SDS011;23733;53.254;10.430;2023-05-20T06:36:27;3.03;;;1.63;;
37895;SDS011;23733;53.254;10.430;2023-05-20T06:38:53;3.87;;;1.80;;
37895;SDS011;23733;53.254;10.430;2023-05-20T06:41:25;6.60;;;2.17;;
37895;SDS011;23733;53.254;10.430;2023-05-20T06:43:51;5.47;;;1.70;;
37895;SDS011;23733;53.254;10.430;2023-05-20T06:46:17;5.13;;;1.70;;
37895;SDS011;23733;53.254;10.430;2023-05-20T06:48:43;4.83;;;2.00;;
37895;SDS011;23733;53.254;10.430;2023-05-20T06:51:09;4.20;;;1.83;;
37895;SDS011;23733;53.254;10.430;2023-05-20T06:53:35;5.17;;;1.80;;
37895;SDS011;23733;53.254;10.430;2023-05-20T06:56:01;4.30;;;1.57;;
37895;SDS011;23733;53.254;10.430;2023-05-20T06:58:27;5.50;;;1.70;;
37895;SDS011;23733;53.254;10.430;2023-05-20T07:01:00;4.00;;;1.60;;
37895;SDS011;23733;53.254;10.430;2023-05-20T07:03:26;3.47;;;1.60;;
37895;SDS011;23733;53.254;10.430;2023-05-20T07:05:52;3.23;;;1.70;;
37895;SDS011;23733;53.254;10.430;2023-05-20T07:08:18;3.30;;;1.63;;
37895;SDS011;23733;53.254;10.430;2023-05-20T07:10:50;3.43;;;1.70;;
37895;SDS011;23733;53.254;10.430;2023-05-20T07:13:16;3.33;;;1.80;;
37895;SDS011;23733;53.254;10.430;2023-05-20T07:18:30;5.23;;;2.00;;
37895;SDS011;23733;53.254;10.430;2023-05-20T07:21:02;5.10;;;1.70;;
37895;SDS011;23733;53.254;10.430;2023-05-20T07:23:37;4.77;;;1.73;;
37895;SDS011;23733;53.254;10.430;2023-05-20T07:26:12;2.97;;;1.47;;
37895;SDS011;23733;53.254;10.430;2023-05-20T07:29:07;8.23;;;1.80;;
37895;SDS011;23733;53.254;10.430;2023-05-20T07:31:40;3.53;;;1.83;;
37895;SDS011;23733;53.254;10.430;2023-05-20T07:34:06;3.30;;;1.60;;
37895;SDS011;23733;53.254;10.430;2023-05-20T07:36:32;2.60;;;1.67;;
37895;SDS011;23733;53.254;10.430;2023-05-20T07:39:08;3.03;;;1.80;;
37895;SDS011;23733;53.254;10.430;2023-05-20T07:41:44;4.40;;;1.83;;
37895;SDS011;23733;53.254;10.430;2023-05-20T07:44:13;4.60;;;1.70;;
37895;SDS011;23733;53.254;10.430;2023-05-20T07:46:48;5.57;;;1.80;;
37895;SDS011;23733;53.254;10.430;2023-05-20T07:49:14;4.83;;;1.60;;
37895;SDS011;23733;53.254;10.430;2023-05-20T07:51:43;3.57;;;1.60;;
37895;SDS011;23733;53.254;10.430;2023-05-20T07:59:56;3.57;;;1.83;;
37895;SDS011;23733;53.254;10.430;2023-05-20T08:02:22;3.97;;;1.67;;
37895;SDS011;23733;53.254;10.430;2023-05-20T08:04:48;6.13;;;1.80;;
37895;SDS011;23733;53.254;10.430;2023-05-20T08:07:20;2.77;;;1.80;;
37895;SDS011;23733;53.254;10.430;2023-05-20T08:09:47;3.70;;;1.80;;
37895;SDS011;23733;53.254;10.430;2023-05-20T08:12:20;4.90;;;1.67;;
37895;SDS011;23733;53.254;10.430;2023-05-20T08:14:53;5.13;;;1.87;;
37895;SDS011;23733;53.254;10.430;2023-05-20T08:17:40;2.90;;;1.83;;
37895;SDS011;23733;53.254;10.430;2023-05-20T08:22:55;2.47;;;1.60;;
37895;SDS011;23733;53.254;10.430;2023-05-20T08:25:21;4.27;;;1.73;;
37895;SDS011;23733;53.254;10.430;2023-05-20T08:27:50;5.67;;;1.60;;
37895;SDS011;23733;53.254;10.430;2023-05-20T08:30:36;1.70;;;1.43;;
37895;SDS011;23733;53.254;10.430;2023-05-20T08:33:11;3.70;;;1.83;;
37895;SDS011;23733;53.254;10.430;2023-05-20T08:35:37;3.40;;;1.37;;
37895;SDS011;23733;53.254;10.430;2023-05-20T08:38:08;5.10;;;1.70;;
37895;SDS011;23733;53.254;10.430;2023-05-20T08:40:37;9.47;;;1.30;;
37895;SDS011;23733;53.254;10.430;2023-05-20T08:43:05;4.00;;;1.47;;
37895;SDS011;23733;53.254;10.430;2023-05-20T08:45:41;2.57;;;1.67;;
37895;SDS011;23733;53.254;10.430;2023-05-20T08:48:10;2.57;;;1.40;;
37895;SDS011;23733;53.254;10.430;2023-05-20T08:50:36;9.73;;;1.67;;
37895;SDS011;23733;53.254;10.430;2023-05-20T08:53:11;11.73;;;1.70;;
37895;SDS011;23733;53.254;10.430;2023-05-20T08:55:41;2.63;;;1.60;;
37895;SDS011;23733;53.254;10.430;2023-05-20T08:58:14;2.00;;;1.30;;
37895;SDS011;23733;53.254;10.430;2023-05-20T09:00:40;2.77;;;1.53;;
37895;SDS011;23733;53.254;10.430;2023-05-20T09:03:15;6.80;;;1.50;;
37895;SDS011;23733;53.254;10.430;2023-05-20T09:05:42;4.37;;;1.67;;
37895;SDS011;23733;53.254;10.430;2023-05-20T09:08:08;2.93;;;1.50;;
37895;SDS011;23733;53.254;10.430;2023-05-20T09:10:39;1.87;;;1.23;;
37895;SDS011;23733;53.254;10.430;2023-05-20T09:13:10;4.00;;;1.50;;
37895;SDS011;23733;53.254;10.430;2023-05-20T09:15:42;2.50;;;1.57;;
37895;SDS011;23733;53.254;10.430;2023-05-20T09:18:08;3.30;;;1.60;;
37895;SDS011;23733;53.254;10.430;2023-05-20T09:20:37;2.67;;;1.63;;
37895;SDS011;23733;53.254;10.430;2023-05-20T09:23:07;3.43;;;1.53;;
37895;SDS011;23733;53.254;10.430;2023-05-20T09:25:37;4.23;;;1.73;;
37895;SDS011;23733;53.254;10.430;2023-05-20T09:28:06;7.73;;;1.77;;
37895;SDS011;23733;53.254;10.430;2023-05-20T09:30:33;2.57;;;1.60;;
37895;SDS011;23733;53.254;10.430;2023-05-20T09:33:00;3.80;;;1.47;;
37895;SDS011;23733;53.254;10.430;2023-05-20T09:35:33;4.83;;;1.50;;
37895;SDS011;23733;53.254;10.430;2023-05-20T09:38:02;4.37;;;1.50;;
37895;SDS011;23733;53.254;10.430;2023-05-20T09:40:42;3.07;;;1.30;;
37895;SDS011;23733;53.254;10.430;2023-05-20T09:43:44;2.93;;;1.60;;
37895;SDS011;23733;53.254;10.430;2023-05-20T09:46:43;2.80;;;1.50;;
37895;SDS011;23733;53.254;10.430;2023-05-20T09:49:13;2.73;;;1.60;;
37895;SDS011;23733;53.254;10.430;2023-05-20T09:51:40;2.00;;;1.47;;
37895;SDS011;23733;53.254;10.430;2023-05-20T09:54:14;7.53;;;1.70;;
37895;SDS011;23733;53.254;10.430;2023-05-20T09:56:52;3.20;;;1.60;;
37895;SDS011;23733;53.254;10.430;2023-05-20T09:59:18;3.07;;;1.40;;
37895;SDS011;23733;53.254;10.430;2023-05-20T10:01:46;3.17;;;1.60;;
37895;SDS011;23733;53.254;10.430;2023-05-20T10:04:12;3.27;;;1.40;;
37895;SDS011;23733;53.254;10.430;2023-05-20T10:06:44;4.93;;;1.60;;
37895;SDS011;23733;53.254;10.430;2023-05-20T10:09:31;2.43;;;1.30;;
37895;SDS011;23733;53.254;10.430;2023-05-20T10:12:38;3.13;;;1.23;;
37895;SDS011;23733;53.254;10.430;2023-05-20T10:17:53;2.87;;;1.50;;
37895;SDS011;23733;53.254;10.430;2023-05-20T10:20:21;2.43;;;1.50;;
37895;SDS011;23733;53.254;10.430;2023-05-20T10:22:54;3.60;;;1.40;;
37895;SDS011;23733;53.254;10.430;2023-05-20T10:25:23;4.27;;;1.53;;
37895;SDS011;23733;53.254;10.430;2023-05-20T10:27:51;2.27;;;1.40;;
37895;SDS011;23733;53.254;10.430;2023-05-20T10:30:20;4.77;;;1.63;;
37895;SDS011;23733;53.254;10.430;2023-05-20T10:32:54;2.33;;;1.23;;
37895;SDS011;23733;53.254;10.430;2023-05-20T10:35:30;3.10;;;1.50;;
37895;SDS011;23733;53.254;10.430;2023-05-20T10:38:11;6.80;;;1.77;;
37895;SDS011;23733;53.254;10.430;2023-05-20T10:40:37;9.17;;;1.70;;
37895;SDS011;23733;53.254;10.430;2023-05-20T10:43:07;4.77;;;1.77;;
37895;SDS011;23733;53.254;10.430;2023-05-20T10:45:54;3.23;;;1.53;;
37895;SDS011;23733;53.254;10.430;2023-05-20T10:48:22;2.27;;;1.43;;
37895;SDS011;23733;53.254;10.430;2023-05-20T10:50:58;9.20;;;1.90;;
37895;SDS011;23733;53.254;10.430;2023-05-20T10:53:28;3.07;;;1.70;;
37895;SDS011;23733;53.254;10.430;2023-05-20T10:56:14;3.47;;;1.60;;
37895;SDS011;23733;53.254;10.430;2023-05-20T10:58:41;2.80;;;1.50;;
37895;SDS011;23733;53.254;10.430;2023-05-20T11:01:08;4.80;;;1.60;;
37895;SDS011;23733;53.254;10.430;2023-05-20T11:03:42;5.97;;;1.80;;
37895;SDS011;23733;53.254;10.430;2023-05-20T11:06:12;5.40;;;1.90;;
37895;SDS011;23733;53.254;10.430;2023-05-20T11:08:39;4.93;;;1.60;;
37895;SDS011;23733;53.254;10.430;2023-05-20T11:11:06;3.63;;;1.67;;
37895;SDS011;23733;53.254;10.430;2023-05-20T11:13:34;3.33;;;1.60;;
37895;SDS011;23733;53.254;10.430;2023-05-20T11:16:03;4.80;;;1.97;;
37895;SDS011;23733;53.254;10.430;2023-05-20T11:18:59;4.17;;;1.80;;
37895;SDS011;23733;53.254;10.430;2023-05-20T11:21:25;6.03;;;1.80;;
37895;SDS011;23733;53.254;10.430;2023-05-20T11:23:53;1.87;;;1.40;;
37895;SDS011;23733;53.254;10.430;2023-05-20T11:26:19;7.20;;;1.87;;
37895;SDS011;23733;53.254;10.430;2023-05-20T11:28:48;2.10;;;1.43;;
37895;SDS011;23733;53.254;10.430;2023-05-20T11:31:14;4.80;;;1.83;;
37895;SDS011;23733;53.254;10.430;2023-05-20T11:33:43;3.93;;;1.90;;
37895;SDS011;23733;53.254;10.430;2023-05-20T11:36:09;5.07;;;1.73;;
37895;SDS011;23733;53.254;10.430;2023-05-20T11:38:39;4.70;;;1.80;;
37895;SDS011;23733;53.254;10.430;2023-05-20T11:41:11;6.33;;;1.70;;
37895;SDS011;23733;53.254;10.430;2023-05-20T11:44:01;2.77;;;1.77;;
37895;SDS011;23733;53.254;10.430;2023-05-20T11:46:27;4.00;;;1.73;;
37895;SDS011;23733;53.254;10.430;2023-05-20T11:48:56;2.50;;;1.60;;
37895;SDS011;23733;53.254;10.430;2023-05-20T11:51:25;2.73;;;1.90;;
37895;SDS011;23733;53.254;10.430;2023-05-20T11:53:52;3.00;;;1.80;;
37895;SDS011;23733;53.254;10.430;2023-05-20T11:56:24;3.00;;;2.10;;
37895;SDS011;23733;53.254;10.430;2023-05-20T11:58:52;4.13;;;2.13;;
37895;SDS011;23733;53.254;10.430;2023-05-20T12:01:18;4.43;;;2.10;;
37895;SDS011;23733;53.254;10.430;2023-05-20T12:03:44;7.87;;;2.47;;
37895;SDS011;23733;53.254;10.430;2023-05-20T12:06:10;5.23;;;2.20;;
37895;SDS011;23733;53.254;10.430;2023-05-20T12:08:37;7.00;;;2.37;;
37895;SDS011;23733;53.254;10.430;2023-05-20T12:11:03;4.37;;;2.07;;
37895;SDS011;23733;53.254;10.430;2023-05-20T12:13:29;3.67;;;2.10;;
37895;SDS011;23733;53.254;10.430;2023-05-20T12:15:55;4.23;;;2.40;;
37895;SDS011;23733;53.254;10.430;2023-05-20T12:18:21;4.43;;;2.20;;
37895;SDS011;23733;53.254;10.430;2023-05-20T12:20:47;4.40;;;2.27;;
37895;SDS011;23733;53.254;10.430;2023-05-20T12:23:13;3.23;;;2.30;;
37895;SDS011;23733;53.254;10.430;2023-05-20T12:25:40;3.80;;;2.13;;
37895;SDS011;23733;53.254;10.430;2023-05-20T12:28:06;3.50;;;2.50;;
37895;SDS011;23733;53.254;10.430;2023-05-20T12:30:32;6.47;;;2.50;;
37895;SDS011;23733;53.254;10.430;2023-05-20T12:32:58;3.70;;;2.10;;
37895;SDS011;23733;53.254;10.430;2023-05-20T12:35:25;5.27;;;2.27;;
37895;SDS011;23733;53.254;10.430;2023-05-20T12:38:02;4.30;;;2.03;;
37895;SDS011;23733;53.254;10.430;2023-05-20T12:40:28;5.40;;;2.50;;
37895;SDS011;23733;53.254;10.430;2023-05-20T12:42:54;4.77;;;2.30;;
37895;SDS011;23733;53.254;10.430;2023-05-20T12:45:20;5.70;;;2.97;;
37895;SDS011;23733;53.254;10.430;2023-05-20T12:47:46;6.43;;;2.67;;
37895;SDS011;23733;53.254;10.430;2023-05-20T12:50:13;3.30;;;2.53;;
37895;SDS011;23733;53.254;10.430;2023-05-20T12:52:39;3.90;;;2.60;;
37895;SDS011;23733;53.254;10.430;2023-05-20T12:55:05;4.17;;;2.43;;
37895;SDS011;23733;53.254;10.430;2023-05-20T12:57:44;5.27;;;2.60;;
37895;SDS011;23733;53.254;10.430;2023-05-20T13:00:11;4.30;;;2.40;;
37895;SDS011;23733;53.254;10.430;2023-05-20T13:02:38;3.50;;;2.47;;
37895;SDS011;23733;53.254;10.430;2023-05-20T13:05:06;6.00;;;2.50;;
37895;SDS011;23733;53.254;10.430;2023-05-20T13:07:32;6.43;;;2.47;;
37895;SDS011;23733;53.254;10.430;2023-05-20T13:09:58;3.67;;;2.30;;
37895;SDS011;23733;53.254;10.430;2023-05-20T13:12:28;4.63;;;2.53;;
37895;SDS011;23733;53.254;10.430;2023-05-20T13:14:54;7.27;;;2.80;;
37895;SDS011;23733;53.254;10.430;2023-05-20T13:17:23;5.00;;;2.53;;
37895;SDS011;23733;53.254;10.430;2023-05-20T13:19:55;6.10;;;2.70;;
37895;SDS011;23733;53.254;10.430;2023-05-20T13:22:24;8.20;;;2.60;;
37895;SDS011;23733;53.254;10.430;2023-05-20T13:24:53;3.10;;;2.30;;
37895;SDS011;23733;53.254;10.430;2023-05-20T13:27:19;3.87;;;2.50;;
37895;SDS011;23733;53.254;10.430;2023-05-20T13:29:47;3.17;;;2.47;;
37895;SDS011;23733;53.254;10.430;2023-05-20T13:32:16;3.07;;;2.20;;
37895;SDS011;23733;53.254;10.430;2023-05-20T13:34:42;4.30;;;2.73;;
37895;SDS011;23733;53.254;10.430;2023-05-20T13:37:15;4.20;;;2.50;;
37895;SDS011;23733;53.254;10.430;2023-05-20T13:39:41;4.63;;;2.50;;
37895;SDS011;23733;53.254;10.430;2023-05-20T13:42:08;5.60;;;2.40;;
37895;SDS011;23733;53.254;10.430;2023-05-20T13:44:37;3.60;;;2.23;;
37895;SDS011;23733;53.254;10.430;2023-05-20T13:47:03;6.17;;;2.80;;
37895;SDS011;23733;53.254;10.430;2023-05-20T13:49:32;2.80;;;2.17;;
37895;SDS011;23733;53.254;10.430;2023-05-20T13:52:01;5.17;;;2.33;;
37895;SDS011;23733;53.254;10.430;2023-05-20T13:54:27;3.10;;;2.30;;
37895;SDS011;23733;53.254;10.430;2023-05-20T13:57:02;3.43;;;2.40;;
37895;SDS011;23733;53.254;10.430;2023-05-20T13:59:32;5.90;;;2.20;;
37895;SDS011;23733;53.254;10.430;2023-05-20T14:02:04;3.63;;;2.40;;
37895;SDS011;23733;53.254;10.430;2023-05-20T14:04:30;7.13;;;2.43;;
37895;SDS011;23733;53.254;10.430;2023-05-20T14:06:56;4.53;;;2.37;;
37895;SDS011;23733;53.254;10.430;2023-05-20T14:09:23;4.03;;;2.63;;
37895;SDS011;23733;53.254;10.430;2023-05-20T14:11:52;3.80;;;2.33;;
37895;SDS011;23733;53.254;10.430;2023-05-20T14:14:27;5.43;;;2.40;;
37895;SDS011;23733;53.254;10.430;2023-05-20T14:16:56;5.73;;;2.03;;
37895;SDS011;23733;53.254;10.430;2023-05-20T14:19:22;2.63;;;2.10;;
37895;SDS011;23733;53.254;10.430;2023-05-20T14:21:48;3.00;;;2.10;;
37895;SDS011;23733;53.254;10.430;2023-05-20T14:24:14;6.43;;;2.07;;
37895;SDS011;23733;53.254;10.430;2023-05-20T14:26:40;3.30;;;2.10;;
37895;SDS011;23733;53.254;10.430;2023-05-20T14:29:06;5.20;;;2.03;;
37895;SDS011;23733;53.254;10.430;2023-05-20T14:31:32;5.07;;;1.97;;
37895;SDS011;23733;53.254;10.430;2023-05-20T14:33:58;4.80;;;2.60;;
37895;SDS011;23733;53.254;10.430;2023-05-20T14:36:25;6.23;;;2.40;;
37895;SDS011;23733;53.254;10.430;2023-05-20T14:38:51;3.83;;;2.13;;
37895;SDS011;23733;53.254;10.430;2023-05-20T14:41:22;4.87;;;1.90;;
37895;SDS011;23733;53.254;10.430;2023-05-20T14:43:48;2.77;;;2.13;;
37895;SDS011;23733;53.254;10.430;2023-05-20T14:46:17;3.40;;;2.20;;
37895;SDS011;23733;53.254;10.430;2023-05-20T14:48:52;2.60;;;2.00;;
37895;SDS011;23733;53.254;10.430;2023-05-20T14:51:18;5.13;;;2.00;;
37895;SDS011;23733;53.254;10.430;2023-05-20T14:53:49;3.03;;;2.13;;
37895;SDS011;23733;53.254;10.430;2023-05-20T14:56:15;2.27;;;1.80;;
37895;SDS011;23733;53.254;10.430;2023-05-20T14:58:44;2.80;;;1.97;;